sensor_id;sensor_type;location;lat;lon;timestamp;pressure;altitude;pressure_sealevel;temperature;humidity
34065;BME280;20339;49.754;20.158;2023-03-04T00:00:56;96592.36;;;-2.62;90.21
34065;BME280;20339;49.754;20.158;2023-03-04T00:03:25;96591.00;;;-2.65;90.16
34065;BME280;20339;49.754;20.158;2023-03-04T00:05:54;96590.61;;;-2.71;90.11
34065;BME280;20339;49.754;20.158;2023-03-04T00:08:23;96589.05;;;-2.73;90.09
34065;BME280;20339;49.754;20.158;2023-03-04T00:10:53;96588.24;;;-2.78;90.03
34065;BME280;20339;49.754;20.158;2023-03-04T00:13:22;96593.59;;;-2.80;90.20
34065;BME280;20339;49.754;20.158;2023-03-04T00:15:52;96592.80;;;-2.82;90.23
34065;BME280;20339;49.754;20.158;2023-03-04T00:18:21;96589.33;;;-2.84;90.19
34065;BME280;20339;49.754;20.158;2023-03-04T00:20:50;96592.80;;;-2.85;90.48
34065;BME280;20339;49.754;20.158;2023-03-04T00:23:19;96586.61;;;-2.88;90.52
34065;BME280;20339;49.754;20.158;2023-03-04T00:25:49;96591.83;;;-2.91;90.49
34065;BME280;20339;49.754;20.158;2023-03-04T00:28:18;96588.70;;;-2.92;90.34
34065;BME280;20339;49.754;20.158;2023-03-04T00:30:47;96586.79;;;-2.93;90.58
34065;BME280;20339;49.754;20.158;2023-03-04T00:33:17;96586.64;;;-2.93;90.66
34065;BME280;20339;49.754;20.158;2023-03-04T00:35:46;96580.21;;;-2.94;90.54
34065;BME280;20339;49.754;20.158;2023-03-04T00:38:15;96581.52;;;-2.97;90.44
34065;BME280;20339;49.754;20.158;2023-03-04T00:40:45;96579.94;;;-3.00;90.56
34065;BME280;20339;49.754;20.158;2023-03-04T00:43:14;96582.68;;;-3.01;90.51
34065;BME280;20339;49.754;20.158;2023-03-04T00:45:43;96579.48;;;-3.02;90.38
34065;BME280;20339;49.754;20.158;2023-03-04T00:48:13;96579.33;;;-3.02;90.51
34065;BME280;20339;49.754;20.158;2023-03-04T00:50:43;96575.98;;;-3.03;90.63
34065;BME280;20339;49.754;20.158;2023-03-04T00:53:12;96571.43;;;-3.04;90.84
34065;BME280;20339;49.754;20.158;2023-03-04T00:55:41;96557.78;;;-3.05;90.78
34065;BME280;20339;49.754;20.158;2023-03-04T00:58:10;96548.57;;;-3.06;90.87
34065;BME280;20339;49.754;20.158;2023-03-04T01:00:40;96544.92;;;-3.07;90.91
34065;BME280;20339;49.754;20.158;2023-03-04T01:03:09;96540.02;;;-3.08;90.88
34065;BME280;20339;49.754;20.158;2023-03-04T01:05:38;96536.95;;;-3.08;90.91
34065;BME280;20339;49.754;20.158;2023-03-04T01:08:07;96530.20;;;-3.08;91.09
34065;BME280;20339;49.754;20.158;2023-03-04T01:10:37;96526.86;;;-3.09;90.95
34065;BME280;20339;49.754;20.158;2023-03-04T01:13:06;96528.73;;;-3.08;90.85
34065;BME280;20339;49.754;20.158;2023-03-04T01:15:35;96524.55;;;-3.06;90.79
34065;BME280;20339;49.754;20.158;2023-03-04T01:18:04;96522.45;;;-3.02;90.80
34065;BME280;20339;49.754;20.158;2023-03-04T01:20:33;96519.81;;;-2.97;90.62
34065;BME280;20339;49.754;20.158;2023-03-04T01:23:03;96514.05;;;-2.95;90.48
34065;BME280;20339;49.754;20.158;2023-03-04T01:25:32;96504.20;;;-2.98;90.35
34065;BME280;20339;49.754;20.158;2023-03-04T01:28:01;96502.63;;;-2.96;90.41
34065;BME280;20339;49.754;20.158;2023-03-04T01:30:31;96497.87;;;-2.96;90.57
34065;BME280;20339;49.754;20.158;2023-03-04T01:33:00;96493.58;;;-2.94;90.47
34065;BME280;20339;49.754;20.158;2023-03-04T01:35:29;96483.61;;;-2.94;90.29
34065;BME280;20339;49.754;20.158;2023-03-04T01:37:58;96478.59;;;-2.93;90.28
34065;BME280;20339;49.754;20.158;2023-03-04T01:40:28;96474.72;;;-2.85;90.50
34065;BME280;20339;49.754;20.158;2023-03-04T01:42:58;96469.48;;;-2.77;90.50
34065;BME280;20339;49.754;20.158;2023-03-04T01:45:27;96470.35;;;-2.74;90.15
34065;BME280;20339;49.754;20.158;2023-03-04T01:47:57;96473.70;;;-2.72;90.21
34065;BME280;20339;49.754;20.158;2023-03-04T01:50:29;96474.72;;;-2.62;90.20
34065;BME280;20339;49.754;20.158;2023-03-04T01:52:58;96466.73;;;-2.54;89.88
34065;BME280;20339;49.754;20.158;2023-03-04T01:55:28;96467.14;;;-2.51;89.58
34065;BME280;20339;49.754;20.158;2023-03-04T01:57:58;96472.87;;;-2.55;89.40
34065;BME280;20339;49.754;20.158;2023-03-04T02:00:28;96470.66;;;-2.51;89.37
34065;BME280;20339;49.754;20.158;2023-03-04T02:02:59;96465.66;;;-2.48;89.29
34065;BME280;20339;49.754;20.158;2023-03-04T02:05:30;96459.52;;;-2.47;89.16
34065;BME280;20339;49.754;20.158;2023-03-04T02:07:59;96457.43;;;-2.46;89.21
34065;BME280;20339;49.754;20.158;2023-03-04T02:10:29;96452.28;;;-2.46;89.22
34065;BME280;20339;49.754;20.158;2023-03-04T02:12:59;96448.25;;;-2.39;89.24
34065;BME280;20339;49.754;20.158;2023-03-04T02:15:29;96444.92;;;-2.40;89.15
34065;BME280;20339;49.754;20.158;2023-03-04T02:17:58;96443.36;;;-2.41;89.14
34065;BME280;20339;49.754;20.158;2023-03-04T02:20:36;96435.27;;;-2.43;89.00
34065;BME280;20339;49.754;20.158;2023-03-04T02:23:12;96433.79;;;-2.39;88.94
34065;BME280;20339;49.754;20.158;2023-03-04T02:25:46;96426.16;;;-2.39;88.76
34065;BME280;20339;49.754;20.158;2023-03-04T02:28:16;96427.60;;;-2.39;88.59
34065;BME280;20339;49.754;20.158;2023-03-04T02:30:45;96423.11;;;-2.41;88.51
34065;BME280;20339;49.754;20.158;2023-03-04T02:33:16;96417.73;;;-2.42;88.42
34065;BME280;20339;49.754;20.158;2023-03-04T02:35:45;96414.59;;;-2.39;88.44
34065;BME280;20339;49.754;20.158;2023-03-04T02:38:14;96410.43;;;-2.35;88.32
34065;BME280;20339;49.754;20.158;2023-03-04T02:40:44;96407.19;;;-2.34;88.07
34065;BME280;20339;49.754;20.158;2023-03-04T02:43:15;96406.52;;;-2.34;88.12
34065;BME280;20339;49.754;20.158;2023-03-04T02:45:45;96408.50;;;-2.34;87.88
34065;BME280;20339;49.754;20.158;2023-03-04T02:48:15;96403.75;;;-2.32;87.67
34065;BME280;20339;49.754;20.158;2023-03-04T02:50:46;96401.02;;;-2.28;87.70
34065;BME280;20339;49.754;20.158;2023-03-04T02:53:16;96396.95;;;-2.29;87.48
34065;BME280;20339;49.754;20.158;2023-03-04T02:55:47;96398.54;;;-2.29;87.44
34065;BME280;20339;49.754;20.158;2023-03-04T02:58:17;96402.25;;;-2.27;87.44
34065;BME280;20339;49.754;20.158;2023-03-04T03:00:46;96403.38;;;-2.25;87.31
34065;BME280;20339;49.754;20.158;2023-03-04T03:03:15;96404.77;;;-2.27;87.13
34065;BME280;20339;49.754;20.158;2023-03-04T03:05:45;96407.04;;;-2.25;87.24
34065;BME280;20339;49.754;20.158;2023-03-04T03:08:14;96402.37;;;-2.25;87.17
34065;BME280;20339;49.754;20.158;2023-03-04T03:10:43;96397.66;;;-2.28;87.15
34065;BME280;20339;49.754;20.158;2023-03-04T03:13:12;96394.52;;;-2.30;87.14
34065;BME280;20339;49.754;20.158;2023-03-04T03:15:42;96391.25;;;-2.33;87.19
34065;BME280;20339;49.754;20.158;2023-03-04T03:18:11;96385.95;;;-2.36;87.07
34065;BME280;20339;49.754;20.158;2023-03-04T03:20:41;96381.08;;;-2.38;86.91
34065;BME280;20339;49.754;20.158;2023-03-04T03:23:10;96373.80;;;-2.42;86.87
34065;BME280;20339;49.754;20.158;2023-03-04T03:25:40;96371.34;;;-2.46;86.83
34065;BME280;20339;49.754;20.158;2023-03-04T03:28:09;96367.91;;;-2.46;86.63
34065;BME280;20339;49.754;20.158;2023-03-04T03:30:38;96361.88;;;-2.47;86.49
34065;BME280;20339;49.754;20.158;2023-03-04T03:33:08;96358.41;;;-2.49;86.52
34065;BME280;20339;49.754;20.158;2023-03-04T03:35:37;96357.74;;;-2.52;86.51
34065;BME280;20339;49.754;20.158;2023-03-04T03:38:06;96356.09;;;-2.54;86.29
34065;BME280;20339;49.754;20.158;2023-03-04T03:40:35;96348.66;;;-2.55;86.20
34065;BME280;20339;49.754;20.158;2023-03-04T03:43:05;96352.55;;;-2.58;86.08
34065;BME280;20339;49.754;20.158;2023-03-04T03:45:34;96346.08;;;-2.58;86.00
34065;BME280;20339;49.754;20.158;2023-03-04T03:48:04;96331.17;;;-2.31;85.38
34065;BME280;20339;49.754;20.158;2023-03-04T03:50:33;96328.17;;;-1.76;84.17
34065;BME280;20339;49.754;20.158;2023-03-04T03:53:02;96327.23;;;-1.33;81.44
34065;BME280;20339;49.754;20.158;2023-03-04T03:55:32;96322.46;;;-1.05;79.30
34065;BME280;20339;49.754;20.158;2023-03-04T03:58:01;96313.31;;;-0.87;77.40
34065;BME280;20339;49.754;20.158;2023-03-04T04:00:30;96315.48;;;-0.82;75.13
34065;BME280;20339;49.754;20.158;2023-03-04T04:03:00;96317.02;;;-0.83;74.40
34065;BME280;20339;49.754;20.158;2023-03-04T04:05:29;96311.36;;;-0.82;73.56
34065;BME280;20339;49.754;20.158;2023-03-04T04:07:58;96314.46;;;-0.86;73.00
34065;BME280;20339;49.754;20.158;2023-03-04T04:10:28;96315.78;;;-0.91;72.78
34065;BME280;20339;49.754;20.158;2023-03-04T04:12:57;96314.59;;;-0.91;72.50
34065;BME280;20339;49.754;20.158;2023-03-04T04:15:27;96312.33;;;-0.90;72.33
34065;BME280;20339;49.754;20.158;2023-03-04T04:17:56;96313.60;;;-0.89;72.30
34065;BME280;20339;49.754;20.158;2023-03-04T04:20:25;96318.04;;;-0.88;71.94
34065;BME280;20339;49.754;20.158;2023-03-04T04:22:55;96318.25;;;-0.88;71.60
34065;BME280;20339;49.754;20.158;2023-03-04T04:25:24;96318.19;;;-0.91;71.44
34065;BME280;20339;49.754;20.158;2023-03-04T04:27:54;96316.20;;;-0.89;71.39
34065;BME280;20339;49.754;20.158;2023-03-04T04:30:23;96312.49;;;-0.90;71.25
34065;BME280;20339;49.754;20.158;2023-03-04T04:32:52;96315.70;;;-0.90;71.43
34065;BME280;20339;49.754;20.158;2023-03-04T04:35:22;96319.74;;;-0.87;70.93
34065;BME280;20339;49.754;20.158;2023-03-04T04:37:51;96313.54;;;-0.86;70.57
34065;BME280;20339;49.754;20.158;2023-03-04T04:40:21;96312.00;;;-0.85;70.43
34065;BME280;20339;49.754;20.158;2023-03-04T04:42:50;96306.23;;;-0.81;70.06
34065;BME280;20339;49.754;20.158;2023-03-04T04:45:20;96303.42;;;-0.73;68.92
34065;BME280;20339;49.754;20.158;2023-03-04T04:47:49;96296.67;;;-0.72;69.18
34065;BME280;20339;49.754;20.158;2023-03-04T04:50:19;96291.43;;;-0.72;68.15
34065;BME280;20339;49.754;20.158;2023-03-04T04:52:48;96289.19;;;-0.59;67.11
34065;BME280;20339;49.754;20.158;2023-03-04T04:55:18;96277.93;;;-0.53;66.01
34065;BME280;20339;49.754;20.158;2023-03-04T04:57:47;96290.21;;;-0.48;65.44
34065;BME280;20339;49.754;20.158;2023-03-04T05:00:17;96288.20;;;-0.44;64.80
34065;BME280;20339;49.754;20.158;2023-03-04T05:02:47;96285.55;;;-0.36;64.18
34065;BME280;20339;49.754;20.158;2023-03-04T05:05:16;96290.17;;;-0.41;64.29
34065;BME280;20339;49.754;20.158;2023-03-04T05:07:46;96293.41;;;-0.45;64.36
34065;BME280;20339;49.754;20.158;2023-03-04T05:10:15;96290.27;;;-0.50;64.19
34065;BME280;20339;49.754;20.158;2023-03-04T05:12:44;96299.05;;;-0.47;64.45
34065;BME280;20339;49.754;20.158;2023-03-04T05:15:14;96295.10;;;-0.48;64.33
34065;BME280;20339;49.754;20.158;2023-03-04T05:17:43;96298.34;;;-0.50;64.66
34065;BME280;20339;49.754;20.158;2023-03-04T05:20:13;96297.54;;;-0.54;64.81
34065;BME280;20339;49.754;20.158;2023-03-04T05:22:42;96295.69;;;-0.60;65.29
34065;BME280;20339;49.754;20.158;2023-03-04T05:25:11;96298.38;;;-0.67;65.62
34065;BME280;20339;49.754;20.158;2023-03-04T05:27:41;96297.37;;;-0.73;65.54
34065;BME280;20339;49.754;20.158;2023-03-04T05:30:11;96300.10;;;-0.91;66.42
34065;BME280;20339;49.754;20.158;2023-03-04T05:32:40;96298.02;;;-1.16;67.29
34065;BME280;20339;49.754;20.158;2023-03-04T05:35:10;96299.14;;;-1.28;68.21
34065;BME280;20339;49.754;20.158;2023-03-04T05:37:39;96295.17;;;-1.14;68.96
34065;BME280;20339;49.754;20.158;2023-03-04T05:40:10;96296.23;;;-0.97;68.99
34065;BME280;20339;49.754;20.158;2023-03-04T05:42:40;96296.29;;;-0.90;69.31
34065;BME280;20339;49.754;20.158;2023-03-04T05:45:10;96302.98;;;-0.67;69.72
34065;BME280;20339;49.754;20.158;2023-03-04T05:47:40;96300.66;;;-0.25;70.05
34065;BME280;20339;49.754;20.158;2023-03-04T05:50:10;96303.34;;;0.20;69.93
34065;BME280;20339;49.754;20.158;2023-03-04T05:52:40;96303.08;;;0.71;69.86
34065;BME280;20339;49.754;20.158;2023-03-04T05:55:10;96299.59;;;1.22;69.11
34065;BME280;20339;49.754;20.158;2023-03-04T05:57:40;96299.24;;;1.36;68.21
34065;BME280;20339;49.754;20.158;2023-03-04T06:00:10;96299.20;;;1.76;68.83
34065;BME280;20339;49.754;20.158;2023-03-04T06:02:41;96296.11;;;2.31;68.55
34065;BME280;20339;49.754;20.158;2023-03-04T06:05:11;96290.66;;;2.94;68.15
34065;BME280;20339;49.754;20.158;2023-03-04T06:07:41;96288.91;;;3.52;67.77
34065;BME280;20339;49.754;20.158;2023-03-04T06:10:13;96286.95;;;4.07;67.13
34065;BME280;20339;49.754;20.158;2023-03-04T06:12:43;96281.86;;;4.55;66.57
34065;BME280;20339;49.754;20.158;2023-03-04T06:15:13;96286.73;;;5.00;65.97
34065;BME280;20339;49.754;20.158;2023-03-04T06:17:43;96288.27;;;5.66;65.54
34065;BME280;20339;49.754;20.158;2023-03-04T06:20:12;96289.89;;;6.30;64.94
34065;BME280;20339;49.754;20.158;2023-03-04T06:22:42;96284.59;;;6.83;64.09
34065;BME280;20339;49.754;20.158;2023-03-04T06:25:12;96283.38;;;7.43;63.44
34065;BME280;20339;49.754;20.158;2023-03-04T06:27:42;96281.92;;;7.64;61.78
34065;BME280;20339;49.754;20.158;2023-03-04T06:30:12;96280.10;;;7.79;61.82
34065;BME280;20339;49.754;20.158;2023-03-04T06:32:41;96279.96;;;8.45;61.71
34065;BME280;20339;49.754;20.158;2023-03-04T06:35:13;96273.42;;;8.89;60.48
34065;BME280;20339;49.754;20.158;2023-03-04T06:37:44;96267.33;;;9.42;60.18
34065;BME280;20339;49.754;20.158;2023-03-04T06:40:13;96261.59;;;9.97;58.94
34065;BME280;20339;49.754;20.158;2023-03-04T06:42:43;96255.63;;;10.47;58.23
34065;BME280;20339;49.754;20.158;2023-03-04T06:45:12;96252.67;;;10.81;57.17
34065;BME280;20339;49.754;20.158;2023-03-04T06:47:42;96250.44;;;11.16;56.94
34065;BME280;20339;49.754;20.158;2023-03-04T06:50:12;96245.94;;;11.62;53.33
34065;BME280;20339;49.754;20.158;2023-03-04T06:52:42;96243.75;;;10.29;47.12
34065;BME280;20339;49.754;20.158;2023-03-04T06:55:11;96239.13;;;9.43;46.31
34065;BME280;20339;49.754;20.158;2023-03-04T06:57:41;96229.42;;;8.41;43.39
34065;BME280;20339;49.754;20.158;2023-03-04T07:00:11;96239.40;;;7.81;44.31
34065;BME280;20339;49.754;20.158;2023-03-04T07:02:41;96234.98;;;7.64;43.56
34065;BME280;20339;49.754;20.158;2023-03-04T07:05:10;96237.53;;;7.51;44.02
34065;BME280;20339;49.754;20.158;2023-03-04T07:07:40;96241.05;;;7.79;43.63
34065;BME280;20339;49.754;20.158;2023-03-04T07:10:11;96251.45;;;7.92;43.09
34065;BME280;20339;49.754;20.158;2023-03-04T07:12:40;96266.08;;;8.70;45.73
34065;BME280;20339;49.754;20.158;2023-03-04T07:15:10;96265.98;;;9.62;46.00
34065;BME280;20339;49.754;20.158;2023-03-04T07:17:40;96264.05;;;10.04;47.05
34065;BME280;20339;49.754;20.158;2023-03-04T07:20:10;96263.02;;;10.44;46.28
34065;BME280;20339;49.754;20.158;2023-03-04T07:22:39;96263.36;;;11.11;47.67
34065;BME280;20339;49.754;20.158;2023-03-04T07:25:09;96261.86;;;11.69;45.28
34065;BME280;20339;49.754;20.158;2023-03-04T07:27:39;96264.00;;;11.59;46.43
34065;BME280;20339;49.754;20.158;2023-03-04T07:30:10;96250.18;;;12.43;46.08
34065;BME280;20339;49.754;20.158;2023-03-04T07:32:40;96253.02;;;12.11;44.18
34065;BME280;20339;49.754;20.158;2023-03-04T07:35:10;96251.77;;;12.77;45.14
34065;BME280;20339;49.754;20.158;2023-03-04T07:37:39;96253.64;;;12.91;44.43
34065;BME280;20339;49.754;20.158;2023-03-04T07:40:10;96248.72;;;13.47;44.77
34065;BME280;20339;49.754;20.158;2023-03-04T07:42:40;96241.92;;;13.96;44.66
34065;BME280;20339;49.754;20.158;2023-03-04T07:45:10;96232.80;;;14.44;43.67
34065;BME280;20339;49.754;20.158;2023-03-04T07:47:40;96232.09;;;14.75;43.85
34065;BME280;20339;49.754;20.158;2023-03-04T07:50:11;96225.54;;;15.48;43.59
34065;BME280;20339;49.754;20.158;2023-03-04T07:52:41;96224.10;;;16.24;43.14
34065;BME280;20339;49.754;20.158;2023-03-04T07:55:12;96228.22;;;16.26;38.73
34065;BME280;20339;49.754;20.158;2023-03-04T07:57:43;96231.21;;;15.25;37.52
34065;BME280;20339;49.754;20.158;2023-03-04T08:00:14;96234.41;;;15.04;39.32
34065;BME280;20339;49.754;20.158;2023-03-04T08:02:45;96238.42;;;15.79;39.79
34065;BME280;20339;49.754;20.158;2023-03-04T08:05:15;96241.77;;;16.24;39.80
34065;BME280;20339;49.754;20.158;2023-03-04T08:07:45;96246.42;;;15.82;37.91
34065;BME280;20339;49.754;20.158;2023-03-04T08:10:15;96250.94;;;15.80;39.47
34065;BME280;20339;49.754;20.158;2023-03-04T08:12:46;96252.96;;;16.33;39.30
34065;BME280;20339;49.754;20.158;2023-03-04T08:15:15;96256.20;;;16.54;38.54
34065;BME280;20339;49.754;20.158;2023-03-04T08:17:45;96261.07;;;16.41;37.98
34065;BME280;20339;49.754;20.158;2023-03-04T08:20:15;96255.30;;;16.57;38.69
34065;BME280;20339;49.754;20.158;2023-03-04T08:22:45;96249.75;;;16.43;36.25
34065;BME280;20339;49.754;20.158;2023-03-04T08:25:15;96257.52;;;14.82;35.05
34065;BME280;20339;49.754;20.158;2023-03-04T08:27:45;96261.33;;;13.82;36.12
34065;BME280;20339;49.754;20.158;2023-03-04T08:30:15;96265.06;;;12.70;36.85
34065;BME280;20339;49.754;20.158;2023-03-04T08:32:45;96275.80;;;11.84;38.32
34065;BME280;20339;49.754;20.158;2023-03-04T08:35:15;96276.55;;;11.43;39.38
34065;BME280;20339;49.754;20.158;2023-03-04T08:37:44;96275.65;;;11.20;40.30
34065;BME280;20339;49.754;20.158;2023-03-04T08:40:14;96276.95;;;11.16;40.64
34065;BME280;20339;49.754;20.158;2023-03-04T08:42:44;96276.99;;;10.98;41.70
34065;BME280;20339;49.754;20.158;2023-03-04T08:45:14;96283.15;;;11.57;41.57
34065;BME280;20339;49.754;20.158;2023-03-04T08:47:43;96278.45;;;11.40;40.99
34065;BME280;20339;49.754;20.158;2023-03-04T08:50:12;96278.86;;;10.67;41.30
34065;BME280;20339;49.754;20.158;2023-03-04T08:52:42;96278.36;;;10.54;42.67
34065;BME280;20339;49.754;20.158;2023-03-04T08:55:11;96273.80;;;10.41;42.04
34065;BME280;20339;49.754;20.158;2023-03-04T08:57:41;96280.38;;;9.44;42.79
34065;BME280;20339;49.754;20.158;2023-03-04T09:00:11;96280.68;;;8.78;44.18
34065;BME280;20339;49.754;20.158;2023-03-04T09:02:41;96284.58;;;8.45;45.13
34065;BME280;20339;49.754;20.158;2023-03-04T09:05:11;96281.98;;;7.98;45.76
34065;BME280;20339;49.754;20.158;2023-03-04T09:07:40;96284.05;;;7.56;46.62
34065;BME280;20339;49.754;20.158;2023-03-04T09:10:10;96282.87;;;7.23;47.15
34065;BME280;20339;49.754;20.158;2023-03-04T09:12:40;96286.54;;;6.61;48.26
34065;BME280;20339;49.754;20.158;2023-03-04T09:15:10;96287.28;;;6.08;49.86
34065;BME280;20339;49.754;20.158;2023-03-04T09:17:39;96287.05;;;5.51;50.78
34065;BME280;20339;49.754;20.158;2023-03-04T09:20:10;96279.86;;;5.27;51.71
34065;BME280;20339;49.754;20.158;2023-03-04T09:22:40;96279.36;;;5.23;52.14
34065;BME280;20339;49.754;20.158;2023-03-04T09:25:11;96292.62;;;5.42;52.01
34065;BME280;20339;49.754;20.158;2023-03-04T09:27:43;96301.05;;;5.09;51.58
34065;BME280;20339;49.754;20.158;2023-03-04T09:30:12;96307.71;;;4.52;52.60
34065;BME280;20339;49.754;20.158;2023-03-04T09:32:42;96312.77;;;4.38;53.28
34065;BME280;20339;49.754;20.158;2023-03-04T09:35:11;96306.89;;;4.07;54.22
34065;BME280;20339;49.754;20.158;2023-03-04T09:37:41;96306.75;;;3.53;55.44
34065;BME280;20339;49.754;20.158;2023-03-04T09:40:13;96304.32;;;3.47;56.18
34065;BME280;20339;49.754;20.158;2023-03-04T09:42:45;96300.39;;;3.51;56.58
34065;BME280;20339;49.754;20.158;2023-03-04T09:45:17;96297.30;;;3.59;57.19
34065;BME280;20339;49.754;20.158;2023-03-04T09:47:47;96297.94;;;3.52;57.94
34065;BME280;20339;49.754;20.158;2023-03-04T09:50:18;96304.83;;;3.42;58.71
34065;BME280;20339;49.754;20.158;2023-03-04T09:52:52;96307.36;;;3.48;58.98
34065;BME280;20339;49.754;20.158;2023-03-04T09:55:30;96301.64;;;3.16;58.74
34065;BME280;20339;49.754;20.158;2023-03-04T09:58:04;96302.77;;;2.94;59.62
34065;BME280;20339;49.754;20.158;2023-03-04T10:00:37;96305.23;;;2.87;60.22
34065;BME280;20339;49.754;20.158;2023-03-04T10:03:15;96301.15;;;2.88;60.18
34065;BME280;20339;49.754;20.158;2023-03-04T10:05:47;96301.16;;;2.85;60.78
34065;BME280;20339;49.754;20.158;2023-03-04T10:08:25;96299.52;;;2.70;61.45
34065;BME280;20339;49.754;20.158;2023-03-04T10:10:57;96296.34;;;2.58;62.66
34065;BME280;20339;49.754;20.158;2023-03-04T10:13:30;96288.24;;;2.27;62.84
34065;BME280;20339;49.754;20.158;2023-03-04T10:16:04;96294.73;;;2.22;63.22
34065;BME280;20339;49.754;20.158;2023-03-04T10:18:35;96293.23;;;2.20;63.52
34065;BME280;20339;49.754;20.158;2023-03-04T10:21:10;96292.02;;;2.11;63.71
34065;BME280;20339;49.754;20.158;2023-03-04T10:23:43;96292.39;;;1.93;63.80
34065;BME280;20339;49.754;20.158;2023-03-04T10:26:15;96290.27;;;1.79;64.31
34065;BME280;20339;49.754;20.158;2023-03-04T10:28:47;96299.98;;;1.81;64.15
34065;BME280;20339;49.754;20.158;2023-03-04T10:31:20;96285.45;;;1.91;64.11
34065;BME280;20339;49.754;20.158;2023-03-04T10:33:50;96294.09;;;2.00;63.53
34065;BME280;20339;49.754;20.158;2023-03-04T10:39:09;96289.78;;;2.09;63.97
34065;BME280;20339;49.754;20.158;2023-03-04T10:41:42;96284.09;;;2.01;63.91
34065;BME280;20339;49.754;20.158;2023-03-04T10:44:16;96265.30;;;1.95;64.15
34065;BME280;20339;49.754;20.158;2023-03-04T10:46:46;96300.06;;;1.80;64.77
34065;BME280;20339;49.754;20.158;2023-03-04T10:49:16;96300.40;;;1.96;64.33
34065;BME280;20339;49.754;20.158;2023-03-04T10:51:46;96286.92;;;2.02;63.72
34065;BME280;20339;49.754;20.158;2023-03-04T10:54:19;96296.06;;;1.91;63.73
34065;BME280;20339;49.754;20.158;2023-03-04T10:56:54;96295.86;;;1.88;63.24
34065;BME280;20339;49.754;20.158;2023-03-04T10:59:35;96293.38;;;1.74;63.92
34065;BME280;20339;49.754;20.158;2023-03-04T11:02:12;96298.71;;;1.68;63.83
34065;BME280;20339;49.754;20.158;2023-03-04T11:04:43;96288.38;;;1.68;63.92
34065;BME280;20339;49.754;20.158;2023-03-04T11:07:17;96303.60;;;1.66;65.08
34065;BME280;20339;49.754;20.158;2023-03-04T11:09:46;96295.88;;;1.76;64.62
34065;BME280;20339;49.754;20.158;2023-03-04T11:12:16;96299.23;;;1.79;64.65
34065;BME280;20339;49.754;20.158;2023-03-04T11:14:47;96311.13;;;1.94;64.73
34065;BME280;20339;49.754;20.158;2023-03-04T11:17:21;96313.20;;;2.06;65.32
34065;BME280;20339;49.754;20.158;2023-03-04T11:19:53;96320.89;;;2.06;64.39
34065;BME280;20339;49.754;20.158;2023-03-04T11:22:24;96322.80;;;1.79;64.80
34065;BME280;20339;49.754;20.158;2023-03-04T11:24:58;96342.01;;;1.73;65.64
34065;BME280;20339;49.754;20.158;2023-03-04T11:27:31;96346.23;;;1.76;66.26
34065;BME280;20339;49.754;20.158;2023-03-04T11:30:12;96339.88;;;1.73;65.79
34065;BME280;20339;49.754;20.158;2023-03-04T11:32:45;96341.77;;;1.63;66.49
34065;BME280;20339;49.754;20.158;2023-03-04T11:35:20;96350.13;;;1.57;66.35
34065;BME280;20339;49.754;20.158;2023-03-04T11:37:52;96345.66;;;1.61;67.13
34065;BME280;20339;49.754;20.158;2023-03-04T11:40:27;96345.71;;;1.54;66.97
34065;BME280;20339;49.754;20.158;2023-03-04T11:42:58;96345.35;;;1.27;67.61
34065;BME280;20339;49.754;20.158;2023-03-04T11:45:40;96348.36;;;1.06;68.08
34065;BME280;20339;49.754;20.158;2023-03-04T11:48:15;96345.08;;;0.95;68.41
34065;BME280;20339;49.754;20.158;2023-03-04T11:50:48;96341.52;;;0.87;69.09
34065;BME280;20339;49.754;20.158;2023-03-04T11:53:27;96339.02;;;0.73;69.69
34065;BME280;20339;49.754;20.158;2023-03-04T11:56:05;96336.34;;;0.64;70.16
34065;BME280;20339;49.754;20.158;2023-03-04T11:58:43;96333.52;;;0.62;70.68
34065;BME280;20339;49.754;20.158;2023-03-04T12:01:16;96333.10;;;0.57;70.86
34065;BME280;20339;49.754;20.158;2023-03-04T12:06:42;96313.98;;;0.43;71.56
34065;BME280;20339;49.754;20.158;2023-03-04T12:09:19;96319.73;;;0.42;72.09
34065;BME280;20339;49.754;20.158;2023-03-04T12:11:53;96315.75;;;0.44;72.16
34065;BME280;20339;49.754;20.158;2023-03-04T12:14:28;96320.93;;;0.49;72.33
34065;BME280;20339;49.754;20.158;2023-03-04T12:17:09;96321.40;;;0.56;72.34
34065;BME280;20339;49.754;20.158;2023-03-04T12:19:53;96316.15;;;0.62;72.00
34065;BME280;20339;49.754;20.158;2023-03-04T12:22:29;96296.80;;;0.65;71.95
34065;BME280;20339;49.754;20.158;2023-03-04T12:27:52;96299.61;;;0.59;72.36
34065;BME280;20339;49.754;20.158;2023-03-04T12:30:29;96300.68;;;0.56;72.61
34065;BME280;20339;49.754;20.158;2023-03-04T12:33:04;96297.55;;;0.61;72.79
34065;BME280;20339;49.754;20.158;2023-03-04T12:35:40;96293.33;;;0.63;72.54
34065;BME280;20339;49.754;20.158;2023-03-04T12:38:17;96289.15;;;0.63;72.83
34065;BME280;20339;49.754;20.158;2023-03-04T12:40:53;96287.42;;;0.61;73.22
34065;BME280;20339;49.754;20.158;2023-03-04T12:43:31;96286.34;;;0.61;73.07
34065;BME280;20339;49.754;20.158;2023-03-04T12:46:05;96289.98;;;0.69;73.21
34065;BME280;20339;49.754;20.158;2023-03-04T12:48:42;96285.20;;;0.74;72.79
34065;BME280;20339;49.754;20.158;2023-03-04T12:51:16;96290.86;;;0.75;72.97
34065;BME280;20339;49.754;20.158;2023-03-04T12:53:54;96286.48;;;0.78;73.10
34065;BME280;20339;49.754;20.158;2023-03-04T12:56:25;96290.86;;;0.80;73.05
34065;BME280;20339;49.754;20.158;2023-03-04T12:58:56;96292.41;;;0.85;73.20
34065;BME280;20339;49.754;20.158;2023-03-04T13:01:27;96292.48;;;0.85;72.97
34065;BME280;20339;49.754;20.158;2023-03-04T13:04:00;96284.54;;;0.87;73.14
34065;BME280;20339;49.754;20.158;2023-03-04T13:06:34;96283.20;;;0.91;73.30
34065;BME280;20339;49.754;20.158;2023-03-04T13:09:10;96278.15;;;0.88;72.98
34065;BME280;20339;49.754;20.158;2023-03-04T13:11:54;96278.27;;;0.87;73.34
34065;BME280;20339;49.754;20.158;2023-03-04T13:14:29;96271.99;;;0.91;73.37
34065;BME280;20339;49.754;20.158;2023-03-04T13:17:00;96270.24;;;0.92;73.31
34065;BME280;20339;49.754;20.158;2023-03-04T13:19:43;96276.04;;;0.92;73.68
34065;BME280;20339;49.754;20.158;2023-03-04T13:22:26;96270.13;;;0.92;73.41